Time;durP1;ratioP1;P1;durP2;ratioP2;P2;SDS_P1;SDS_P2;PMS_P1;PMS_P2;Temp;Humidity;BMP_temperature;BMP_pressure;BME280_temperature;BME280_humidity;BME280_pressure;Samples;Min_cycle;Max_cycle;Signal;HPM_P1;HPM_P2
2022/03/16 00:00:28;;;;;;;22.90;16.53;;;6.20;88.70;;;;;;5013211;28;20939;-48
2022/03/16 00:02:55;;;;;;;22.47;17.17;;;6.20;89.00;;;;;;5017735;28;20817;-49
2022/03/16 00:05:23;;;;;;;20.40;14.60;;;6.20;88.80;;;;;;5018032;28;20470;-48
2022/03/16 00:07:50;;;;;;;23.33;16.57;;;6.20;88.70;;;;;;5026790;28;20555;-49
2022/03/16 00:10:16;;;;;;;24.97;15.90;;;6.10;88.60;;;;;;5018774;28;20852;-48
2022/03/16 00:12:43;;;;;;;22.50;16.70;;;6.10;88.60;;;;;;5019179;28;20459;-48
2022/03/16 00:15:11;;;;;;;20.10;16.40;;;6.10;88.40;;;;;;5020550;28;20546;-48
2022/03/16 00:17:37;;;;;;;21.67;16.07;;;6.10;88.40;;;;;;5017917;28;20474;-48
2022/03/16 00:20:05;;;;;;;20.87;15.77;;;6.10;88.40;;;;;;5026153;28;20462;-48
2022/03/16 00:22:32;;;;;;;23.87;16.90;;;6.10;88.60;;;;;;5020498;28;20455;-49
2022/03/16 00:24:59;;;;;;;22.00;16.00;;;6.10;88.70;;;;;;5021111;28;20495;-48
2022/03/16 00:27:25;;;;;;;21.20;15.60;;;6.10;88.60;;;;;;5016636;28;20464;-48
2022/03/16 00:29:52;;;;;;;23.50;16.50;;;6.10;88.70;;;;;;5018015;28;20491;-49
2022/03/16 00:32:19;;;;;;;21.87;17.30;;;6.10;88.80;;;;;;5005960;28;20463;-48
2022/03/16 00:34:45;;;;;;;25.20;16.70;;;6.10;88.80;;;;;;5009976;28;20452;-49
2022/03/16 00:37:12;;;;;;;24.80;16.73;;;6.10;88.70;;;;;;5037893;28;21027;-48
2022/03/16 00:39:39;;;;;;;19.93;15.80;;;6.10;88.50;;;;;;5005598;28;20858;-48
2022/03/16 00:42:06;;;;;;;21.47;14.20;;;6.10;88.40;;;;;;5020223;28;20450;-48
2022/03/16 00:44:35;;;;;;;22.63;15.10;;;6.00;88.50;;;;;;5018124;28;20455;-48
2022/03/16 00:47:04;;;;;;;23.77;15.53;;;6.00;88.60;;;;;;5035481;28;20476;-48
2022/03/16 00:49:30;;;;;;;24.27;15.97;;;6.00;88.60;;;;;;5023755;28;20531;-49
2022/03/16 00:51:58;;;;;;;24.60;16.10;;;6.00;88.50;;;;;;5022396;28;20975;-48
2022/03/16 00:54:24;;;;;;;30.47;17.87;;;5.90;88.70;;;;;;5006558;28;20462;-48
2022/03/16 00:56:52;;;;;;;24.73;15.37;;;5.90;88.90;;;;;;5015337;28;20471;-48
2022/03/16 00:59:19;;;;;;;25.47;17.90;;;5.90;88.90;;;;;;5019435;28;20464;-48
2022/03/16 01:01:45;;;;;;;27.83;17.50;;;5.90;89.00;;;;;;5016542;28;20467;-48
2022/03/16 01:04:12;;;;;;;25.07;17.23;;;5.90;89.10;;;;;;5015597;28;20888;-48
2022/03/16 01:06:39;;;;;;;27.90;14.60;;;5.90;89.00;;;;;;5018796;28;20473;-48
2022/03/16 01:09:06;;;;;;;25.30;15.80;;;5.90;89.10;;;;;;5023023;28;20562;-48
2022/03/16 01:11:33;;;;;;;28.90;17.20;;;5.90;88.80;;;;;;5009165;28;21037;-48
2022/03/16 01:14:00;;;;;;;21.87;16.10;;;5.90;88.70;;;;;;5022082;28;20451;-48
2022/03/16 01:16:26;;;;;;;21.23;14.47;;;5.90;88.70;;;;;;5020671;28;20451;-48
2022/03/16 01:18:56;;;;;;;23.00;16.50;;;5.80;88.60;;;;;;5035023;28;20451;-48
2022/03/16 01:21:23;;;;;;;24.10;17.07;;;5.90;87.90;;;;;;5019396;28;20467;-48
2022/03/16 01:23:51;;;;;;;24.87;14.83;;;5.80;88.20;;;;;;5021083;28;20479;-48
2022/03/16 01:26:18;;;;;;;24.10;15.57;;;5.80;88.10;;;;;;5019392;28;20462;-49
2022/03/16 01:28:44;;;;;;;31.80;16.53;;;5.80;88.30;;;;;;5022989;28;20987;-48
2022/03/16 01:31:11;;;;;;;22.60;15.47;;;5.70;88.30;;;;;;5020492;28;20476;-48
2022/03/16 01:33:38;;;;;;;22.70;15.87;;;5.70;88.40;;;;;;5021927;28;20604;-48
2022/03/16 01:36:05;;;;;;;26.13;17.10;;;5.70;88.40;;;;;;5006499;28;20463;-48
2022/03/16 01:38:31;;;;;;;24.50;16.03;;;5.70;88.20;;;;;;5018814;28;20464;-48
2022/03/16 01:40:58;;;;;;;23.40;16.40;;;5.70;88.30;;;;;;5020550;28;20731;-48
2022/03/16 01:43:25;;;;;;;22.97;15.10;;;5.70;88.30;;;;;;5001043;28;20826;-48
2022/03/16 01:45:52;;;;;;;24.00;15.50;;;5.60;88.40;;;;;;5025572;28;20919;-48
2022/03/16 01:48:19;;;;;;;24.03;17.10;;;5.60;88.50;;;;;;5017475;28;20448;-49
2022/03/16 01:50:49;;;;;;;25.13;14.67;;;5.60;88.70;;;;;;5017386;28;20494;-48
2022/03/16 01:53:17;;;;;;;23.73;16.20;;;5.50;88.60;;;;;;5019727;28;20857;-48
2022/03/16 01:55:44;;;;;;;22.20;16.57;;;5.50;88.70;;;;;;5002780;28;20840;-48
2022/03/16 01:58:11;;;;;;;22.47;15.37;;;5.50;88.60;;;;;;5001846;28;20463;-49
2022/03/16 02:00:39;;;;;;;25.50;17.43;;;5.50;88.70;;;;;;5018125;28;20463;-48
2022/03/16 02:03:09;;;;;;;36.60;17.17;;;5.50;88.80;;;;;;5018291;28;20487;-48
2022/03/16 02:05:37;;;;;;;27.93;15.77;;;5.50;88.90;;;;;;5003166;28;21034;-48
2022/03/16 02:08:05;;;;;;;22.63;15.00;;;5.50;88.80;;;;;;5016949;28;21004;-48
2022/03/16 02:10:32;;;;;;;24.27;15.90;;;5.50;88.70;;;;;;5020173;28;20495;-48
2022/03/16 02:12:59;;;;;;;22.53;15.33;;;5.50;88.70;;;;;;5020951;28;20451;-49
2022/03/16 02:15:26;;;;;;;35.53;15.77;;;5.50;88.80;;;;;;5014860;28;20463;-48
2022/03/16 02:17:57;;;;;;;17.03;12.60;;;5.50;88.90;;;;;;5001864;28;20460;-49
2022/03/16 02:20:25;;;;;;;20.50;14.20;;;5.50;88.60;;;;;;5017960;28;20498;-49
2022/03/16 02:23:05;;;;;;;22.77;14.43;;;5.50;88.80;;;;;;5016514;28;20467;-49
2022/03/16 02:25:32;;;;;;;22.10;14.00;;;5.40;88.90;;;;;;5016407;28;20964;-48
2022/03/16 02:27:59;;;;;;;22.20;13.60;;;5.50;89.00;;;;;;5015302;28;20466;-48
2022/03/16 02:30:29;;;;;;;20.63;14.20;;;5.50;88.90;;;;;;5020663;28;20484;-48
2022/03/16 02:32:56;;;;;;;18.23;13.90;;;5.40;88.90;;;;;;5017366;28;20455;-48
2022/03/16 02:35:23;;;;;;;20.40;14.33;;;5.40;88.90;;;;;;5014465;28;20460;-48
2022/03/16 02:37:51;;;;;;;19.20;13.60;;;5.40;88.90;;;;;;5002807;28;20523;-48
2022/03/16 02:40:20;;;;;;;20.50;14.10;;;5.30;88.90;;;;;;5017963;28;20456;-48
2022/03/16 02:42:47;;;;;;;17.47;13.90;;;5.30;88.80;;;;;;5004137;28;20478;-48
2022/03/16 02:45:14;;;;;;;18.70;12.93;;;5.30;88.70;;;;;;5015736;28;20462;-48
2022/03/16 02:47:41;;;;;;;20.23;13.50;;;5.30;88.50;;;;;;5002616;28;20479;-48
2022/03/16 02:50:08;;;;;;;26.03;14.50;;;5.30;88.50;;;;;;5017705;28;20497;-48
2022/03/16 02:52:35;;;;;;;20.63;13.33;;;5.30;88.40;;;;;;5021362;28;20453;-49
2022/03/16 02:55:03;;;;;;;19.67;13.97;;;5.20;88.60;;;;;;5004328;28;20882;-48
2022/03/16 02:57:30;;;;;;;17.43;13.50;;;5.30;88.80;;;;;;5018402;28;20467;-48
2022/03/16 02:59:56;;;;;;;25.67;14.80;;;5.20;88.80;;;;;;5020106;28;20556;-48
2022/03/16 03:02:23;;;;;;;22.87;15.73;;;5.20;89.00;;;;;;5015858;28;20467;-49
2022/03/16 03:04:50;;;;;;;20.43;15.23;;;5.20;89.10;;;;;;5020219;28;20533;-48
2022/03/16 03:07:17;;;;;;;19.57;14.30;;;5.30;89.20;;;;;;5016989;28;21032;-48
2022/03/16 03:09:44;;;;;;;18.70;15.00;;;5.30;89.30;;;;;;5004279;28;21126;-48
2022/03/16 03:12:11;;;;;;;19.53;15.03;;;5.40;89.30;;;;;;4998983;28;20495;-48
2022/03/16 03:14:37;;;;;;;20.20;14.47;;;5.40;89.20;;;;;;5020499;28;20462;-48
2022/03/16 03:17:04;;;;;;;22.53;14.87;;;5.40;89.30;;;;;;5018460;28;20824;-49
2022/03/16 03:19:32;;;;;;;22.80;16.13;;;5.40;89.30;;;;;;5017315;28;20466;-49
2022/03/16 03:21:58;;;;;;;26.37;16.43;;;5.40;89.50;;;;;;5018897;28;20462;-48
2022/03/16 03:24:25;;;;;;;22.60;15.87;;;5.40;89.60;;;;;;5031019;28;20973;-49
2022/03/16 03:26:53;;;;;;;27.20;17.07;;;5.50;89.60;;;;;;5001185;28;20551;-48
2022/03/16 03:29:19;;;;;;;25.27;17.57;;;5.50;89.60;;;;;;5005758;28;20481;-48
2022/03/16 03:31:46;;;;;;;29.87;18.10;;;5.50;89.80;;;;;;5015359;28;20492;-48
2022/03/16 03:34:13;;;;;;;34.57;18.90;;;5.50;89.70;;;;;;5018494;28;20452;-49
2022/03/16 03:36:40;;;;;;;30.77;19.70;;;5.60;89.80;;;;;;5016401;28;20463;-48
2022/03/16 03:39:07;;;;;;;29.87;17.20;;;5.60;89.80;;;;;;5019709;28;20547;-48
2022/03/16 03:41:34;;;;;;;29.63;18.10;;;5.60;89.80;;;;;;5016798;28;20470;-48
2022/03/16 03:44:00;;;;;;;34.23;19.83;;;5.70;89.80;;;;;;5000287;28;20452;-48
2022/03/16 03:46:27;;;;;;;27.53;18.40;;;5.70;89.80;;;;;;5019150;28;20489;-48
2022/03/16 03:48:54;;;;;;;32.07;19.23;;;5.70;89.80;;;;;;5020434;28;20499;-48
2022/03/16 03:51:21;;;;;;;35.07;19.83;;;5.80;89.80;;;;;;5019693;28;20498;-48
2022/03/16 03:53:48;;;;;;;29.70;19.00;;;5.80;89.80;;;;;;5013731;28;20456;-48
2022/03/16 03:56:15;;;;;;;37.00;19.93;;;5.80;89.80;;;;;;5014483;28;20530;-49
2022/03/16 03:58:42;;;;;;;33.00;19.17;;;5.90;89.80;;;;;;4998324;28;20444;-46
2022/03/16 04:01:09;;;;;;;35.43;19.73;;;5.90;89.80;;;;;;5020974;28;20451;-48
2022/03/16 04:03:39;;;;;;;33.63;17.93;;;5.90;89.80;;;;;;5015846;28;20602;-48
2022/03/16 04:06:06;;;;;;;31.77;19.83;;;5.90;89.80;;;;;;5015429;28;20963;-49
2022/03/16 04:08:33;;;;;;;30.07;18.87;;;6.00;89.80;;;;;;5016377;28;20467;-48
2022/03/16 04:10:59;;;;;;;29.37;18.20;;;5.90;89.80;;;;;;5000137;28;20499;-48
2022/03/16 04:13:26;;;;;;;29.70;19.10;;;6.00;89.80;;;;;;5018081;28;20451;-48
2022/03/16 04:15:53;;;;;;;30.40;18.67;;;6.00;89.70;;;;;;4991027;28;20469;-48
2022/03/16 04:18:26;;;;;;;34.03;18.73;;;6.00;89.70;;;;;;5027801;28;20483;-48
2022/03/16 04:20:53;;;;;;;31.17;18.27;;;6.00;89.80;;;;;;5035816;28;20479;-48
2022/03/16 04:23:23;;;;;;;31.87;18.20;;;6.00;89.80;;;;;;5018453;28;20559;-48
2022/03/16 04:25:50;;;;;;;29.90;18.10;;;6.00;89.80;;;;;;5021883;28;20452;-47
2022/03/16 04:28:17;;;;;;;27.00;16.73;;;6.10;89.80;;;;;;5020981;28;20474;-48
2022/03/16 04:30:43;;;;;;;32.00;18.53;;;6.10;89.80;;;;;;5018057;28;20465;-48
2022/03/16 04:33:10;;;;;;;31.07;17.00;;;6.10;89.80;;;;;;5019963;28;20459;-47
2022/03/16 04:35:37;;;;;;;29.53;17.83;;;6.10;89.80;;;;;;5005293;28;20478;-48
2022/03/16 04:38:04;;;;;;;31.03;18.93;;;6.10;89.50;;;;;;5016553;28;20460;-48
2022/03/16 04:40:30;;;;;;;31.47;19.80;;;6.10;89.70;;;;;;5019772;28;20458;-48
2022/03/16 04:42:57;;;;;;;34.37;20.77;;;6.10;89.80;;;;;;5020279;28;20460;-48
2022/03/16 04:45:24;;;;;;;35.03;18.73;;;6.10;89.80;;;;;;5019651;28;20468;-47
2022/03/16 04:47:51;;;;;;;38.17;18.53;;;6.10;89.70;;;;;;5019023;28;20490;-48
2022/03/16 04:50:18;;;;;;;30.00;17.70;;;6.10;89.60;;;;;;5017024;28;20944;-47
2022/03/16 04:52:46;;;;;;;32.43;17.73;;;6.10;89.60;;;;;;5004593;28;20492;-48
2022/03/16 04:55:14;;;;;;;31.50;17.80;;;6.10;89.70;;;;;;5020098;28;20459;-47
2022/03/16 04:57:41;;;;;;;33.73;18.30;;;6.10;89.80;;;;;;5000852;28;20674;-47
2022/03/16 05:00:09;;;;;;;26.53;17.60;;;6.10;89.80;;;;;;5008033;28;20970;-47
2022/03/16 05:02:37;;;;;;;33.37;20.20;;;6.10;89.70;;;;;;5033560;28;20539;-48
2022/03/16 05:05:05;;;;;;;31.80;19.20;;;6.10;89.80;;;;;;5020696;28;20468;-48
2022/03/16 05:07:31;;;;;;;43.27;19.30;;;6.10;89.80;;;;;;5021532;28;20468;-48
2022/03/16 05:09:58;;;;;;;39.23;20.10;;;6.10;89.80;;;;;;5036876;28;20455;-48
2022/03/16 05:12:25;;;;;;;32.97;20.63;;;6.10;89.80;;;;;;5021190;28;20488;-48
2022/03/16 05:14:51;;;;;;;36.37;21.93;;;6.10;89.80;;;;;;5003079;28;20459;-48
2022/03/16 05:17:18;;;;;;;37.73;19.97;;;6.10;89.80;;;;;;5020420;28;20536;-48
2022/03/16 05:19:48;;;;;;;33.20;19.30;;;6.10;89.80;;;;;;5020281;28;20944;-48
2022/03/16 05:22:15;;;;;;;34.33;18.10;;;6.10;89.80;;;;;;5021424;28;20455;-48
2022/03/16 05:24:42;;;;;;;35.30;18.93;;;6.10;89.80;;;;;;5019677;28;20471;-48
2022/03/16 05:27:08;;;;;;;38.17;19.90;;;6.20;89.70;;;;;;5004436;28;20468;-48
2022/03/16 05:29:35;;;;;;;33.67;18.07;;;6.10;89.80;;;;;;5012973;28;20574;-48
2022/03/16 05:32:03;;;;;;;35.77;19.30;;;6.10;89.80;;;;;;5022554;28;20479;-48
2022/03/16 05:34:30;;;;;;;39.03;20.20;;;6.10;89.80;;;;;;5019319;28;20456;-48
2022/03/16 05:36:57;;;;;;;37.07;19.50;;;6.10;89.80;;;;;;5020012;28;20883;-48
2022/03/16 05:39:24;;;;;;;34.40;19.60;;;6.20;89.80;;;;;;5020792;28;20456;-48
2022/03/16 05:41:50;;;;;;;36.60;20.07;;;6.20;89.60;;;;;;5016612;28;20475;-48
2022/03/16 05:44:17;;;;;;;41.00;20.57;;;6.10;89.80;;;;;;5004186;28;20464;-48
2022/03/16 05:46:44;;;;;;;37.37;17.77;;;6.10;89.80;;;;;;5016874;28;20483;-48
2022/03/16 05:49:11;;;;;;;32.43;17.87;;;6.10;89.70;;;;;;5018526;28;20471;-48
2022/03/16 05:51:37;;;;;;;30.53;17.63;;;6.10;89.60;;;;;;5022615;28;20487;-48
2022/03/16 05:54:04;;;;;;;31.47;17.07;;;6.00;89.40;;;;;;5021619;28;20462;-48
2022/03/16 05:56:31;;;;;;;41.97;22.17;;;6.00;89.60;;;;;;5008184;28;20973;-48
2022/03/16 05:58:58;;;;;;;34.57;21.10;;;6.10;89.50;;;;;;5015047;28;20464;-48
2022/03/16 06:01:25;;;;;;;31.13;18.23;;;6.10;89.30;;;;;;5016339;28;20468;-48
2022/03/16 06:03:53;;;;;;;40.00;20.03;;;6.10;89.20;;;;;;5025301;28;20463;-48
2022/03/16 06:06:20;;;;;;;37.17;19.33;;;6.10;89.20;;;;;;5020307;28;20558;-48
2022/03/16 06:08:47;;;;;;;29.97;17.80;;;6.10;88.80;;;;;;5010635;28;20462;-48
2022/03/16 06:11:14;;;;;;;31.57;18.90;;;6.10;89.00;;;;;;5023326;28;20503;-48
2022/03/16 06:13:40;;;;;;;29.10;18.13;;;6.10;89.10;;;;;;5013790;28;20462;-48
2022/03/16 06:16:07;;;;;;;32.53;17.30;;;6.10;89.20;;;;;;5016107;28;20454;-48
2022/03/16 06:18:34;;;;;;;35.63;19.00;;;6.10;89.30;;;;;;5017210;28;20470;-49
2022/03/16 06:21:01;;;;;;;32.03;19.07;;;6.10;89.10;;;;;;5013675;28;20456;-48
2022/03/16 06:23:29;;;;;;;34.37;18.73;;;6.10;88.80;;;;;;5019853;28;21888;-48
2022/03/16 06:25:56;;;;;;;26.93;16.40;;;6.10;88.70;;;;;;5017052;28;20471;-48
2022/03/16 06:28:22;;;;;;;29.90;17.73;;;6.00;88.80;;;;;;5004065;28;20466;-48
2022/03/16 06:30:49;;;;;;;34.00;18.67;;;6.00;88.80;;;;;;5014855;28;20463;-48
2022/03/16 06:33:17;;;;;;;30.97;18.07;;;6.00;88.90;;;;;;5017475;28;20499;-48
2022/03/16 06:35:43;;;;;;;28.23;18.27;;;6.00;88.80;;;;;;5019761;28;20472;-48
2022/03/16 06:38:11;;;;;;;28.03;16.10;;;6.00;88.60;;;;;;5017883;28;20466;-47
2022/03/16 06:40:38;;;;;;;29.57;16.23;;;6.00;88.50;;;;;;5018954;28;20582;-48
2022/03/16 06:43:05;;;;;;;23.43;15.30;;;6.00;88.50;;;;;;5007790;28;20502;-48
2022/03/16 06:45:32;;;;;;;28.33;16.63;;;6.00;88.80;;;;;;5018767;28;20460;-48
2022/03/16 06:48:00;;;;;;;31.57;17.67;;;6.00;88.80;;;;;;5016309;28;20471;-48
2022/03/16 06:50:28;;;;;;;27.80;16.20;;;6.00;88.80;;;;;;5016677;28;20464;-48
2022/03/16 06:52:56;;;;;;;31.50;18.27;;;6.00;88.60;;;;;;5019290;28;20484;-48
2022/03/16 06:55:23;;;;;;;30.80;16.83;;;6.00;88.90;;;;;;5013099;28;21123;-48
2022/03/16 06:57:51;;;;;;;34.80;17.20;;;6.00;89.10;;;;;;5034756;28;20673;-48
2022/03/16 07:00:17;;;;;;;34.27;17.50;;;6.00;89.00;;;;;;5000771;28;20451;-48
2022/03/16 07:02:56;;;;;;;32.23;17.67;;;6.00;89.10;;;;;;5033928;28;21020;-48
2022/03/16 07:05:39;;;;;;;29.60;16.50;;;6.00;89.10;;;;;;5018793;28;20497;-48
2022/03/16 07:08:08;;;;;;;27.00;15.70;;;6.10;88.60;;;;;;5026908;28;20466;-48
2022/03/16 07:10:37;;;;;;;30.20;16.57;;;6.00;88.50;;;;;;5018426;28;21013;-48
2022/03/16 07:13:11;;;;;;;28.97;16.83;;;6.00;88.80;;;;;;5017342;28;20495;-48
2022/03/16 07:15:42;;;;;;;31.23;16.80;;;6.00;89.10;;;;;;5019493;28;20451;-48
2022/03/16 07:18:10;;;;;;;32.60;16.33;;;6.00;89.10;;;;;;5018951;28;20467;-48
2022/03/16 07:20:38;;;;;;;33.57;16.17;;;6.00;89.30;;;;;;5015745;28;20452;-47
2022/03/16 07:23:12;;;;;;;29.00;15.80;;;6.00;89.50;;;;;;5018939;28;20832;-48
2022/03/16 07:25:40;;;;;;;29.50;16.50;;;6.10;89.40;;;;;;5014578;28;20495;-47
2022/03/16 07:28:08;;;;;;;34.77;18.00;;;6.10;89.30;;;;;;5014637;28;20845;-47
2022/03/16 07:30:36;;;;;;;31.40;16.90;;;6.10;89.30;;;;;;5010098;28;20518;-47
2022/03/16 07:33:05;;;;;;;29.37;16.87;;;6.10;89.00;;;;;;5012173;28;21031;-47
2022/03/16 07:35:32;;;;;;;28.80;15.37;;;6.20;88.80;;;;;;5002358;28;20452;-47
2022/03/16 07:38:02;;;;;;;24.77;15.70;;;6.20;88.70;;;;;;5012062;28;20459;-47
2022/03/16 07:40:35;;;;;;;36.87;18.73;;;6.20;88.60;;;;;;5013713;28;20940;-48
2022/03/16 07:43:03;;;;;;;37.80;18.43;;;6.20;88.60;;;;;;5015365;28;20463;-47
2022/03/16 07:45:30;;;;;;;32.73;17.97;;;6.20;89.00;;;;;;5016283;28;20467;-47
2022/03/16 07:47:57;;;;;;;36.00;19.60;;;6.20;88.80;;;;;;4998705;28;20510;-47
2022/03/16 07:50:24;;;;;;;32.57;18.47;;;6.20;88.60;;;;;;4999304;28;20474;-47
2022/03/16 07:52:51;;;;;;;30.03;19.40;;;6.20;88.60;;;;;;5032460;28;20500;-48
2022/03/16 07:55:18;;;;;;;30.57;16.90;;;6.30;88.80;;;;;;5020401;28;20467;-47
2022/03/16 07:57:45;;;;;;;31.10;16.93;;;6.30;88.70;;;;;;5008313;28;20470;-47
2022/03/16 08:00:13;;;;;;;27.97;16.93;;;6.40;88.70;;;;;;5018756;28;20496;-47
2022/03/16 08:02:43;;;;;;;32.60;18.00;;;6.40;88.70;;;;;;5022855;28;20467;-48
2022/03/16 08:05:11;;;;;;;33.00;18.57;;;6.40;88.90;;;;;;5017856;28;20491;-47
2022/03/16 08:07:39;;;;;;;34.00;17.83;;;6.40;88.60;;;;;;5027459;28;20481;-48
2022/03/16 08:10:07;;;;;;;37.60;18.47;;;6.50;88.30;;;;;;5014732;28;20492;-48
2022/03/16 08:12:34;;;;;;;33.30;20.67;;;6.50;88.30;;;;;;5018394;28;20491;-47
2022/03/16 08:15:01;;;;;;;33.00;20.67;;;6.50;88.40;;;;;;5018576;28;20456;-47
2022/03/16 08:17:27;;;;;;;31.37;18.47;;;6.50;88.40;;;;;;5021984;28;20461;-47
2022/03/16 08:19:54;;;;;;;37.07;19.80;;;6.60;88.80;;;;;;5017541;28;20452;-47
2022/03/16 08:22:31;;;;;;;34.37;22.37;;;6.70;88.70;;;;;;5012732;28;20455;-47
2022/03/16 08:25:01;;;;;;;39.33;20.50;;;6.70;88.30;;;;;;5016581;28;20460;-47
2022/03/16 08:27:29;;;;;;;39.83;20.63;;;6.70;88.30;;;;;;5022377;28;20535;-48
2022/03/16 08:29:56;;;;;;;35.50;18.80;;;6.70;88.60;;;;;;5019973;28;20471;-47
2022/03/16 08:32:24;;;;;;;33.30;17.70;;;6.80;88.70;;;;;;5020485;28;20486;-48
2022/03/16 08:34:51;;;;;;;33.83;18.97;;;6.90;88.20;;;;;;5014977;28;20466;-47
2022/03/16 08:37:19;;;;;;;30.90;18.07;;;6.90;88.00;;;;;;5016881;28;20457;-48
2022/03/16 08:39:47;;;;;;;35.20;19.80;;;7.00;87.80;;;;;;5016284;28;20999;-47
2022/03/16 08:42:15;;;;;;;39.23;20.80;;;7.00;87.80;;;;;;5017046;28;20896;-47
2022/03/16 08:44:43;;;;;;;38.13;21.40;;;7.10;87.70;;;;;;5017768;28;20459;-47
2022/03/16 08:47:16;;;;;;;34.10;21.43;;;7.10;87.60;;;;;;5020218;28;20481;-47
2022/03/16 08:49:46;;;;;;;33.13;18.97;;;7.10;87.40;;;;;;5004195;28;20466;-47
2022/03/16 08:52:13;;;;;;;24.80;16.07;;;7.10;87.20;;;;;;5016527;28;21074;-47
2022/03/16 08:54:41;;;;;;;32.33;18.80;;;7.20;87.10;;;;;;5018020;28;20574;-47
2022/03/16 08:57:09;;;;;;;36.17;19.67;;;7.20;87.30;;;;;;5012200;28;20984;-47
2022/03/16 08:59:37;;;;;;;34.40;20.17;;;7.20;87.20;;;;;;4997594;28;20525;-47
2022/03/16 09:02:05;;;;;;;32.07;18.47;;;7.20;87.20;;;;;;5016351;28;20460;-47
2022/03/16 09:04:34;;;;;;;33.33;18.47;;;7.30;87.30;;;;;;5015154;28;20464;-47
2022/03/16 09:07:04;;;;;;;37.77;19.63;;;7.30;87.30;;;;;;5015993;28;20467;-48
2022/03/16 09:09:38;;;;;;;39.33;20.10;;;7.30;87.30;;;;;;5018333;28;20481;-47
2022/03/16 09:12:05;;;;;;;30.03;17.57;;;7.30;87.10;;;;;;5018622;28;20487;-47
2022/03/16 09:14:32;;;;;;;31.33;18.63;;;7.30;86.80;;;;;;5016274;28;20475;-48
2022/03/16 09:17:00;;;;;;;32.43;20.53;;;7.40;86.80;;;;;;5015049;28;20484;-47
2022/03/16 09:19:27;;;;;;;34.53;20.63;;;7.40;86.70;;;;;;5022112;28;20500;-47
2022/03/16 09:22:00;;;;;;;32.33;21.10;;;7.40;86.70;;;;;;5020888;28;20546;-48
2022/03/16 09:24:26;;;;;;;31.70;18.37;;;7.50;86.50;;;;;;5016605;28;20495;-48
2022/03/16 09:26:59;;;;;;;33.77;18.67;;;7.50;86.30;;;;;;5015143;28;20459;-47
2022/03/16 09:29:28;;;;;;;34.63;18.90;;;7.50;86.10;;;;;;5019498;28;21012;-47
2022/03/16 09:32:00;;;;;;;35.60;19.67;;;7.50;86.20;;;;;;5014996;28;20989;-47
2022/03/16 09:34:27;;;;;;;33.17;19.80;;;7.60;86.30;;;;;;5022872;28;21136;-48
2022/03/16 09:36:54;;;;;;;34.03;20.37;;;7.60;86.10;;;;;;5037621;28;20955;-47
2022/03/16 09:39:21;;;;;;;34.20;20.00;;;7.60;86.20;;;;;;5024245;28;20506;-48
2022/03/16 09:41:49;;;;;;;27.00;18.47;;;7.60;86.00;;;;;;5026472;28;20456;-47
2022/03/16 09:44:17;;;;;;;29.90;17.80;;;7.60;86.10;;;;;;5016546;28;20461;-47
2022/03/16 09:46:45;;;;;;;36.13;20.77;;;7.70;86.30;;;;;;5027806;28;20481;-47
2022/03/16 09:49:14;;;;;;;31.23;18.43;;;7.80;86.50;;;;;;5026861;28;20461;-47
2022/03/16 09:51:41;;;;;;;32.97;20.37;;;7.90;86.20;;;;;;5027045;28;20463;-48
2022/03/16 09:54:07;;;;;;;36.10;19.13;;;7.90;85.40;;;;;;5026488;28;20570;-48
2022/03/16 09:56:35;;;;;;;33.33;20.67;;;8.00;85.40;;;;;;5021899;28;20463;-48
2022/03/16 09:59:02;;;;;;;36.33;21.60;;;8.00;85.40;;;;;;5002641;28;20465;-48
2022/03/16 10:01:29;;;;;;;31.33;20.73;;;8.00;85.30;;;;;;5018583;28;20545;-47
2022/03/16 10:04:06;;;;;;;30.70;19.07;;;8.10;85.40;;;;;;5020316;28;21027;-48
2022/03/16 10:06:41;;;;;;;31.17;19.40;;;8.10;85.20;;;;;;5026312;28;20528;-47
2022/03/16 10:15:18;;;;;;;33.63;21.47;;;8.40;85.20;;;;;;5018391;28;20452;-47
2022/03/16 10:17:50;;;;;;;30.03;19.93;;;8.40;84.80;;;;;;5018279;28;20528;-47
2022/03/16 10:20:23;;;;;;;30.23;20.40;;;8.40;84.50;;;;;;5019563;28;20491;-47
2022/03/16 10:23:00;;;;;;;26.27;18.33;;;8.40;84.30;;;;;;5014318;28;20759;-48
2022/03/16 10:25:29;;;;;;;32.97;21.27;;;8.50;83.90;;;;;;5021088;28;20467;-47
2022/03/16 10:28:12;;;;;;;32.47;19.90;;;8.60;84.20;;;;;;5029144;28;20473;-48
2022/03/16 10:31:02;;;;;;;31.03;19.80;;;8.90;84.50;;;;;;5015746;28;20510;-47
2022/03/16 10:33:35;;;;;;;26.20;18.00;;;9.30;82.60;;;;;;5011937;28;20499;-48
2022/03/16 10:36:09;;;;;;;27.90;17.93;;;9.70;81.80;;;;;;5015962;28;20469;-47
2022/03/16 10:38:40;;;;;;;28.30;18.10;;;10.10;81.20;;;;;;5015166;28;20470;-47
2022/03/16 10:47:17;;;;;;;30.83;17.80;;;11.40;77.10;;;;;;5001710;28;20490;-48
2022/03/16 10:50:00;;;;;;;30.17;19.17;;;11.80;75.80;;;;;;5008265;28;20880;-47
2022/03/16 10:52:31;;;;;;;28.53;18.70;;;12.10;75.00;;;;;;5016462;28;20974;-48
2022/03/16 10:55:02;;;;;;;26.03;17.87;;;12.30;73.80;;;;;;5012737;28;20558;-48
2022/03/16 10:57:31;;;;;;;25.13;17.00;;;12.50;72.80;;;;;;5012600;28;20467;-48
2022/03/16 10:59:59;;;;;;;30.67;19.93;;;12.70;72.90;;;;;;5010882;28;20466;-48
2022/03/16 11:02:33;;;;;;;28.27;18.07;;;12.80;71.60;;;;;;5012002;28;20543;-48
2022/03/16 11:05:01;;;;;;;24.17;18.10;;;12.90;70.30;;;;;;5018258;28;20478;-48
2022/03/16 11:07:30;;;;;;;26.90;17.73;;;13.10;71.30;;;;;;5015564;28;20971;-47
2022/03/16 11:09:57;;;;;;;28.70;17.70;;;13.20;71.50;;;;;;5014342;28;20534;-48
2022/03/16 11:15:11;;;;;;;20.90;16.07;;;13.60;71.40;;;;;;5012683;28;20463;-48
2022/03/16 11:17:40;;;;;;;25.47;19.30;;;13.80;71.10;;;;;;5012751;28;20460;-48
2022/03/16 11:20:08;;;;;;;19.73;15.70;;;14.00;69.90;;;;;;4991970;28;20455;-48
2022/03/16 11:25:43;;;;;;;21.13;16.20;;;14.20;67.70;;;;;;5016761;28;20729;-48
2022/03/16 11:28:16;;;;;;;21.47;17.10;;;14.20;68.00;;;;;;5011978;28;20546;-48
2022/03/16 11:30:44;;;;;;;23.27;17.80;;;14.20;67.70;;;;;;5024202;28;20460;-48
2022/03/16 11:33:12;;;;;;;21.53;17.10;;;14.30;67.60;;;;;;5022514;28;20488;-48
2022/03/16 11:35:44;;;;;;;20.03;16.37;;;14.30;67.70;;;;;;5022953;28;20458;-48
2022/03/16 11:38:13;;;;;;;20.27;16.60;;;14.40;68.40;;;;;;5019798;28;20528;-48
2022/03/16 11:40:45;;;;;;;21.40;16.97;;;14.40;68.20;;;;;;5021280;28;20470;-48
2022/03/16 11:43:12;;;;;;;23.63;18.03;;;14.40;68.30;;;;;;5017722;28;20456;-48
2022/03/16 11:45:38;;;;;;;21.07;17.40;;;14.40;68.50;;;;;;5023250;28;20464;-48
2022/03/16 11:48:37;;;;;;;22.97;17.07;;;14.40;69.00;;;;;;5019372;28;20479;-48
2022/03/16 11:51:11;;;;;;;18.83;15.67;;;14.40;68.50;;;;;;5019402;28;20458;-48
2022/03/16 11:56:40;;;;;;;20.17;16.07;;;14.30;67.90;;;;;;5020573;28;20456;-48
2022/03/16 11:59:16;;;;;;;20.77;17.20;;;14.10;67.20;;;;;;5012164;28;20989;-48
2022/03/16 12:01:49;;;;;;;20.20;17.20;;;13.90;68.40;;;;;;5018437;28;20466;-48
2022/03/16 12:04:29;;;;;;;20.47;16.73;;;13.80;69.50;;;;;;5021108;28;20851;-48
2022/03/16 12:07:02;;;;;;;21.57;16.50;;;13.70;69.70;;;;;;5014526;28;21061;-48
2022/03/16 12:09:31;;;;;;;25.27;17.40;;;13.60;69.50;;;;;;5021798;28;20967;-48
2022/03/16 12:15:12;;;;;;;24.67;17.40;;;13.50;70.40;;;;;;5016952;28;20462;-48
2022/03/16 12:17:40;;;;;;;25.43;19.17;;;13.50;70.50;;;;;;5017679;28;20521;-48
2022/03/16 12:20:10;;;;;;;22.23;17.50;;;13.60;70.50;;;;;;5021405;28;20859;-48
2022/03/16 12:22:46;;;;;;;23.00;17.40;;;13.60;71.50;;;;;;5017509;28;20460;-48
2022/03/16 12:25:26;;;;;;;22.90;17.17;;;13.70;71.60;;;;;;5019350;28;20669;-48
2022/03/16 12:31:01;;;;;;;20.20;15.87;;;13.90;70.90;;;;;;5015090;28;20467;-48
2022/03/16 12:33:37;;;;;;;27.40;18.73;;;14.00;70.40;;;;;;5002070;28;20890;-48
2022/03/16 12:36:14;;;;;;;22.40;16.63;;;14.00;69.80;;;;;;5014431;28;20471;-48
2022/03/16 12:38:44;;;;;;;17.60;15.10;;;14.10;69.90;;;;;;5019206;28;20467;-48
2022/03/16 12:44:01;;;;;;;24.80;18.73;;;14.20;69.90;;;;;;5019006;28;20476;-48
2022/03/16 12:46:40;;;;;;;23.40;18.53;;;14.30;69.30;;;;;;5017996;28;20920;-48
2022/03/16 12:49:11;;;;;;;24.23;17.40;;;14.30;68.50;;;;;;5019326;28;20830;-48
2022/03/16 12:51:48;;;;;;;21.33;16.43;;;14.40;68.50;;;;;;5021334;28;20480;-48
2022/03/16 12:54:27;;;;;;;21.50;15.27;;;14.40;68.80;;;;;;5004028;28;20487;-48
2022/03/16 12:57:05;;;;;;;15.23;13.63;;;14.40;69.30;;;;;;5019349;28;20942;-48
2022/03/16 12:59:38;;;;;;;18.70;14.43;;;14.40;68.90;;;;;;5014421;28;20548;-48
2022/03/16 13:02:10;;;;;;;21.77;16.73;;;14.30;68.60;;;;;;5018258;28;20548;-48
2022/03/16 13:04:40;;;;;;;21.37;15.80;;;14.30;69.10;;;;;;5015365;28;20468;-48
2022/03/16 13:07:08;;;;;;;19.10;15.90;;;14.20;69.10;;;;;;5017998;28;20472;-48
2022/03/16 13:09:36;;;;;;;18.23;15.00;;;14.20;69.30;;;;;;5019303;28;20478;-48
2022/03/16 13:12:12;;;;;;;19.20;15.90;;;14.10;68.70;;;;;;5021064;28;21051;-47